createdAt,value
2022-08-16T00:03:02.489Z,62.40
2022-08-16T00:06:10.094Z,63.20
2022-08-16T00:09:17.901Z,62.40
2022-08-16T00:12:11.963Z,62.40
2022-08-16T00:15:50.882Z,62.50
2022-08-16T00:18:40.078Z,62.50
2022-08-16T00:21:29.191Z,62.50
2022-08-16T00:24:31.203Z,63.30
2022-08-16T00:27:21.039Z,62.60
2022-08-16T00:30:19.373Z,62.50
2022-08-16T00:33:07.424Z,62.60
2022-08-16T00:35:56.385Z,62.60
2022-08-16T00:38:44.178Z,62.60
2022-08-16T00:41:33.681Z,62.80
2022-08-16T00:44:31.893Z,62.80
2022-08-16T00:47:49.465Z,63.00
2022-08-16T00:50:56.784Z,63.20
2022-08-16T00:53:54.191Z,63.20
2022-08-16T00:57:00.142Z,64.10
2022-08-16T01:00:08.589Z,62.80
2022-08-16T01:03:16.730Z,63.70
2022-08-16T01:06:40.887Z,63.70
2022-08-16T01:09:50.901Z,64.60
2022-08-16T01:12:52.669Z,63.90
2022-08-16T01:16:02.909Z,64.80
2022-08-16T01:19:13.100Z,64.20
2022-08-16T01:22:50.244Z,64.40
2022-08-16T01:25:36.236Z,64.40
2022-08-16T01:28:45.293Z,64.60
2022-08-16T01:31:33.590Z,65.50
2022-08-16T01:34:56.751Z,64.90
2022-08-16T01:38:19.337Z,65.80
2022-08-16T01:41:29.978Z,65.10
2022-08-16T01:44:38.488Z,65.20
2022-08-16T01:47:49.573Z,65.80
2022-08-16T01:51:08.857Z,66.30
2022-08-16T01:54:10.528Z,65.60
2022-08-16T01:57:31.500Z,65.70
2022-08-16T02:00:38.528Z,65.70
2022-08-16T02:03:50.565Z,65.80
2022-08-16T02:06:46.824Z,66.10
2022-08-16T02:09:59.688Z,66.10
2022-08-16T02:13:20.149Z,66.00
2022-08-16T02:16:35.306Z,66.30
2022-08-16T02:19:59.481Z,66.50
2022-08-16T02:23:07.789Z,66.70
2022-08-16T02:26:16.949Z,66.90
2022-08-16T02:29:31.866Z,67.00
2022-08-16T02:32:50.098Z,67.00
2022-08-16T02:36:00.296Z,67.20
2022-08-16T02:39:07.040Z,67.10
2022-08-16T02:42:14.427Z,67.30
2022-08-16T02:45:28.244Z,68.30
2022-08-16T02:48:38.553Z,67.50
2022-08-16T02:51:45.573Z,67.40
2022-08-16T02:54:55.377Z,68.50
2022-08-16T02:58:05.342Z,67.40
2022-08-16T03:01:24.939Z,67.60
2022-08-16T03:04:50.786Z,68.40
2022-08-16T03:08:01.477Z,67.70
2022-08-16T03:11:17.997Z,67.60
2022-08-16T03:14:29.185Z,68.70
2022-08-16T03:17:50.780Z,69.00
2022-08-16T03:21:01.041Z,68.40
2022-08-16T03:23:50.110Z,68.50
2022-08-16T03:26:59.426Z,68.80
2022-08-16T03:29:56.850Z,69.20
2022-08-16T03:33:07.574Z,69.40
2022-08-16T03:36:30.247Z,70.20
2022-08-16T03:39:20.294Z,69.50
2022-08-16T03:42:28.497Z,70.00
2022-08-16T03:45:37.411Z,70.00
2022-08-16T03:48:40.594Z,69.90
2022-08-16T03:51:38.096Z,70.80
2022-08-16T03:54:37.668Z,70.00
2022-08-16T03:57:44.914Z,70.90
2022-08-16T04:00:42.278Z,70.10
2022-08-16T04:03:37.101Z,70.90
2022-08-16T04:06:25.174Z,71.20
2022-08-16T04:09:15.275Z,70.60
2022-08-16T04:12:04.142Z,70.40
2022-08-16T04:15:02.476Z,70.70
2022-08-16T04:17:54.850Z,70.70
2022-08-16T04:20:44.962Z,71.50
2022-08-16T04:23:36.509Z,70.90
2022-08-16T04:26:25.483Z,70.90
2022-08-16T04:29:46.212Z,70.90
2022-08-16T04:32:55.688Z,70.90
2022-08-16T04:35:49.597Z,71.40
2022-08-16T04:38:56.745Z,72.20
2022-08-16T04:41:57.650Z,72.50
2022-08-16T04:45:06.913Z,71.50
2022-08-16T04:48:21.896Z,71.80
2022-08-16T04:51:41.514Z,72.00
2022-08-16T04:54:33.501Z,71.90
2022-08-16T04:57:42.146Z,72.00
2022-08-16T05:00:49.747Z,72.30
2022-08-16T05:03:59.559Z,73.30
2022-08-16T05:06:51.347Z,72.50
2022-08-16T05:09:49.379Z,72.50
2022-08-16T05:12:38.331Z,72.50
2022-08-16T05:15:33.060Z,72.60
2022-08-16T05:18:26.911Z,72.70
2022-08-16T05:21:17.000Z,72.80
2022-08-16T05:24:14.237Z,72.90
2022-08-16T05:27:13.785Z,73.00
2022-08-16T05:30:33.945Z,73.20
2022-08-16T05:33:16.632Z,73.20
2022-08-16T05:36:14.230Z,73.30
2022-08-16T05:39:22.358Z,73.40
2022-08-16T05:42:35.671Z,74.20
2022-08-16T05:45:43.284Z,73.60
2022-08-16T05:48:54.928Z,74.50
2022-08-16T05:51:45.737Z,74.60
2022-08-16T05:55:01.070Z,74.70
2022-08-16T05:58:20.205Z,74.70
2022-08-16T06:01:18.690Z,74.30
2022-08-16T06:04:35.514Z,74.50
2022-08-16T06:07:38.533Z,74.30
2022-08-16T06:10:36.131Z,74.70
2022-08-16T06:13:26.110Z,74.90
2022-08-16T06:16:39.871Z,75.00
2022-08-16T06:19:28.031Z,75.10
2022-08-16T06:22:39.111Z,75.10
2022-08-16T06:25:36.320Z,75.30
2022-08-16T06:28:36.358Z,76.30
2022-08-16T06:31:29.064Z,75.50
2022-08-16T06:34:55.135Z,76.20
2022-08-16T06:37:37.634Z,75.60
2022-08-16T06:40:33.621Z,75.70
2022-08-16T06:43:22.082Z,75.80
2022-08-16T06:46:42.026Z,75.90
2022-08-16T06:49:57.273Z,76.00
2022-08-16T06:53:08.891Z,76.80
2022-08-16T06:56:14.805Z,76.50
2022-08-16T06:59:52.483Z,76.10
2022-08-16T07:03:27.769Z,77.10
2022-08-16T07:06:35.009Z,77.00
2022-08-16T07:09:49.662Z,77.30
2022-08-16T07:13:03.443Z,76.90
2022-08-16T07:16:15.384Z,77.70
2022-08-16T07:20:01.867Z,76.70
2022-08-16T07:22:58.828Z,77.40
2022-08-16T07:26:25.263Z,75.90
2022-08-16T07:29:17.614Z,75.60
2022-08-16T07:32:29.722Z,75.00
2022-08-16T07:35:44.403Z,75.20
2022-08-16T07:38:53.590Z,74.30
2022-08-16T07:42:01.610Z,73.60
2022-08-16T07:45:13.604Z,73.70
2022-08-16T07:48:11.722Z,73.70
2022-08-16T07:51:09.099Z,72.60
2022-08-16T07:54:09.137Z,71.90
2022-08-16T07:56:59.678Z,71.70
2022-08-16T07:59:50.788Z,71.80
2022-08-16T08:02:40.849Z,71.80
2022-08-16T08:05:37.411Z,71.90
2022-08-16T08:08:51.354Z,71.90
2022-08-16T08:11:37.497Z,71.70
2022-08-16T08:14:30.377Z,71.20
2022-08-16T08:17:21.002Z,71.20
2022-08-16T08:20:10.166Z,70.80
2022-08-16T08:23:00.633Z,70.40
2022-08-16T08:25:55.092Z,70.30
2022-08-16T08:28:47.325Z,70.10
2022-08-16T08:31:36.941Z,70.20
2022-08-16T08:34:25.069Z,68.20
2022-08-16T08:37:14.012Z,68.80
2022-08-16T08:40:05.994Z,69.40
2022-08-16T08:43:18.307Z,68.50
2022-08-16T08:46:36.374Z,68.30
2022-08-16T08:49:50.729Z,65.80
2022-08-16T08:53:04.906Z,67.30
2022-08-16T08:56:23.448Z,67.40
2022-08-16T08:59:40.618Z,66.90
2022-08-16T09:02:52.184Z,66.30
2022-08-16T09:06:01.405Z,67.00
2022-08-16T09:09:17.178Z,67.10
2022-08-16T09:12:31.260Z,66.90
2022-08-16T09:15:51.745Z,66.70
2022-08-16T09:19:04.022Z,67.00
2022-08-16T09:22:20.963Z,67.10
2022-08-16T09:25:34.292Z,67.20
2022-08-16T09:29:17.119Z,67.60
2022-08-16T09:32:28.948Z,67.80
2022-08-16T09:35:39.391Z,67.90
2022-08-16T09:38:51.135Z,67.70
2022-08-16T09:42:07.941Z,67.70
2022-08-16T09:45:18.869Z,67.70
2022-08-16T09:48:44.260Z,67.60
2022-08-16T09:51:59.195Z,67.40
2022-08-16T09:55:08.179Z,67.50
2022-08-16T09:58:40.528Z,67.20
2022-08-16T10:01:48.054Z,66.70
2022-08-16T10:04:59.582Z,66.50
2022-08-16T10:08:26.456Z,65.80
2022-08-16T10:11:52.679Z,65.60
2022-08-16T10:15:01.496Z,65.10
2022-08-16T10:19:00.188Z,65.10
2022-08-16T10:21:41.868Z,65.40
2022-08-16T10:24:59.339Z,66.10
2022-08-16T10:28:28.075Z,65.00
2022-08-16T10:31:44.265Z,65.80
2022-08-16T10:34:54.212Z,65.80
2022-08-16T10:38:06.755Z,65.10
2022-08-16T10:41:20.073Z,65.10
2022-08-16T10:44:31.547Z,65.00
2022-08-16T10:47:40.770Z,64.60
2022-08-16T10:50:51.388Z,64.50
2022-08-16T10:54:01.196Z,65.30
2022-08-16T10:57:12.219Z,64.40
2022-08-16T11:00:21.168Z,64.00
2022-08-16T11:03:42.459Z,64.20
2022-08-16T11:07:08.653Z,64.60
2022-08-16T11:14:11.050Z,65.90
2022-08-16T11:17:19.629Z,66.00
2022-08-16T11:20:48.954Z,66.10
2022-08-16T11:23:58.046Z,66.10
2022-08-16T11:27:32.720Z,66.40
2022-08-16T11:30:39.356Z,66.30
2022-08-16T11:33:55.330Z,66.20
2022-08-16T11:37:03.412Z,67.00
2022-08-16T11:40:13.784Z,66.30
2022-08-16T11:43:26.556Z,66.30
2022-08-16T11:46:44.879Z,66.30
2022-08-16T11:49:54.095Z,66.00
2022-08-16T11:53:03.862Z,66.10
2022-08-16T11:56:11.971Z,66.10
2022-08-16T11:59:25.390Z,66.90
2022-08-16T12:02:36.470Z,66.00
2022-08-16T12:05:45.388Z,66.20
2022-08-16T12:08:55.506Z,66.10
2022-08-16T12:12:03.967Z,66.10
2022-08-16T12:15:16.010Z,66.20
2022-08-16T12:18:24.608Z,66.00
2022-08-16T12:21:57.847Z,66.00
2022-08-16T12:25:01.182Z,65.90
2022-08-16T12:28:09.506Z,65.50
2022-08-16T12:31:19.285Z,66.30
2022-08-16T12:34:28.816Z,65.20
2022-08-16T12:37:37.416Z,64.90
2022-08-16T12:40:50.832Z,65.00
2022-08-16T12:44:04.400Z,65.90
2022-08-16T12:47:31.470Z,66.00
2022-08-16T12:50:39.887Z,65.00
2022-08-16T12:53:47.947Z,65.10
2022-08-16T12:56:57.797Z,65.20
2022-08-16T13:00:08.089Z,65.10
2022-08-16T13:03:17.547Z,65.60
2022-08-16T13:06:32.084Z,66.40
2022-08-16T13:09:51.771Z,65.30
2022-08-16T13:13:02.314Z,65.30
2022-08-16T13:16:20.495Z,66.10
2022-08-16T13:19:55.998Z,65.30
2022-08-16T13:23:00.450Z,65.20
2022-08-16T13:26:12.744Z,65.80
2022-08-16T13:29:26.075Z,65.50
2022-08-16T13:32:48.942Z,65.50
2022-08-16T13:36:01.789Z,65.30
2022-08-16T13:39:14.440Z,65.20
2022-08-16T13:42:22.904Z,65.20
2022-08-16T13:45:36.170Z,65.30
2022-08-16T13:48:45.116Z,65.30
2022-08-16T13:51:54.715Z,64.50
2022-08-16T13:55:03.003Z,64.40
2022-08-16T13:58:37.265Z,64.20
2022-08-16T14:01:40.006Z,64.10
2022-08-16T14:04:49.176Z,63.70
2022-08-16T14:08:15.077Z,63.40
2022-08-16T14:11:23.502Z,62.60
2022-08-16T14:14:32.057Z,62.80
2022-08-16T14:18:14.879Z,63.10
2022-08-16T14:21:08.291Z,62.90
2022-08-16T14:24:29.736Z,62.60
2022-08-16T14:27:39.093Z,62.60
2022-08-16T14:30:50.567Z,62.50
2022-08-16T14:33:59.794Z,62.40
2022-08-16T14:37:08.779Z,62.40
2022-08-16T14:40:20.586Z,63.00
2022-08-16T14:43:29.867Z,62.30
2022-08-16T14:46:38.901Z,62.40
2022-08-16T14:49:47.143Z,62.70
2022-08-16T14:52:57.876Z,62.40
2022-08-16T14:56:07.798Z,63.20
2022-08-16T14:59:25.957Z,62.50
2022-08-16T15:02:35.199Z,62.50
2022-08-16T15:05:23.216Z,62.20
2022-08-16T15:08:11.180Z,62.30
2022-08-16T15:10:58.736Z,62.20
2022-08-16T15:14:07.073Z,62.00
2022-08-16T15:16:54.932Z,62.80
2022-08-16T15:19:55.855Z,62.00
2022-08-16T15:22:44.996Z,62.50
2022-08-16T15:25:34.496Z,62.00
2022-08-16T15:28:31.839Z,62.40
2022-08-16T15:31:21.382Z,61.50
2022-08-16T15:34:09.244Z,61.40
2022-08-16T15:37:06.951Z,61.00
2022-08-16T15:39:56.085Z,61.60
2022-08-16T15:42:47.172Z,61.40
2022-08-16T15:45:59.029Z,61.30
2022-08-16T15:48:48.449Z,61.10
2022-08-16T15:51:39.540Z,61.00
2022-08-16T15:54:30.888Z,60.90
2022-08-16T15:57:21.526Z,60.90
2022-08-16T16:00:15.254Z,60.90
2022-08-16T16:03:04.807Z,61.30
2022-08-16T16:06:00.094Z,61.70
2022-08-16T16:08:49.307Z,65.70
2022-08-16T16:11:39.032Z,62.60
2022-08-16T16:14:29.103Z,62.60
2022-08-16T16:17:37.823Z,62.70
2022-08-16T16:20:47.522Z,63.40
2022-08-16T16:23:58.935Z,62.40
2022-08-16T16:27:10.842Z,62.30
2022-08-16T16:30:37.397Z,62.40
2022-08-16T16:33:50.219Z,63.40
2022-08-16T16:36:58.387Z,62.40
2022-08-16T16:40:09.597Z,62.70
2022-08-16T16:43:21.010Z,62.50
2022-08-16T16:46:43.076Z,62.00
2022-08-16T16:49:51.686Z,62.70
2022-08-16T16:53:02.062Z,62.00
2022-08-16T16:56:32.246Z,62.00
2022-08-16T16:59:43.543Z,62.80
2022-08-16T17:02:54.189Z,61.60
2022-08-16T17:06:03.250Z,61.40
2022-08-16T17:09:17.568Z,61.50
2022-08-16T17:12:46.941Z,61.50
2022-08-16T17:15:55.259Z,61.70
2022-08-16T17:19:17.131Z,62.00
2022-08-16T17:22:32.708Z,61.70
2022-08-16T17:25:41.874Z,62.20
2022-08-16T17:28:59.147Z,61.40
2022-08-16T17:32:33.949Z,61.50
2022-08-16T17:35:43.650Z,62.20
2022-08-16T17:38:51.837Z,61.30
2022-08-16T17:42:01.842Z,61.20
2022-08-16T17:45:11.765Z,61.50
2022-08-16T17:48:20.086Z,61.30
2022-08-16T17:51:28.515Z,61.40
2022-08-16T17:54:36.497Z,61.30
2022-08-16T17:57:44.734Z,61.30
2022-08-16T18:00:59.667Z,61.20
2022-08-16T18:04:09.982Z,61.20
2022-08-16T18:07:18.057Z,61.30
2022-08-16T18:10:33.532Z,61.20
2022-08-16T18:13:44.534Z,61.30
2022-08-16T18:16:54.643Z,61.30
2022-08-16T18:20:02.423Z,62.10
2022-08-16T18:23:10.264Z,61.50
2022-08-16T18:26:21.710Z,61.60
2022-08-16T18:29:29.676Z,61.80
2022-08-16T18:32:43.549Z,62.00
2022-08-16T18:35:57.018Z,62.00
2022-08-16T18:39:06.158Z,62.10
2022-08-16T18:42:15.186Z,62.00
2022-08-16T18:45:23.174Z,62.20
2022-08-16T18:48:32.646Z,62.30
2022-08-16T18:51:42.513Z,62.40
2022-08-16T18:55:01.883Z,63.20
2022-08-16T18:58:12.666Z,63.30
2022-08-16T19:01:21.106Z,62.70
2022-08-16T19:04:55.938Z,62.50
2022-08-16T19:07:58.694Z,62.50
2022-08-16T19:11:07.226Z,63.30
2022-08-16T19:14:16.024Z,62.60
2022-08-16T19:17:23.899Z,62.70
2022-08-16T19:20:33.203Z,62.80
2022-08-16T19:23:41.092Z,62.80
2022-08-16T19:26:49.080Z,63.60
2022-08-16T19:29:57.646Z,62.80
2022-08-16T19:33:11.015Z,62.90
2022-08-16T19:36:31.266Z,62.90
2022-08-16T19:39:41.008Z,63.00
2022-08-16T19:42:49.115Z,63.80
2022-08-16T19:45:57.334Z,63.00
2022-08-16T19:49:05.553Z,63.10
2022-08-16T19:52:17.219Z,63.10
2022-08-16T19:55:25.230Z,63.20
2022-08-16T19:58:33.582Z,63.30
2022-08-16T20:01:42.761Z,64.20
2022-08-16T20:04:52.101Z,63.50
2022-08-16T20:08:04.687Z,63.50
2022-08-16T20:11:13.216Z,63.50
2022-08-16T20:14:01.353Z,63.90
2022-08-16T20:16:49.488Z,64.50
2022-08-16T20:19:40.559Z,64.70
2022-08-16T20:22:52.460Z,64.90
2022-08-16T20:25:58.635Z,65.20
2022-08-16T20:28:54.145Z,65.70
2022-08-16T20:31:42.814Z,66.10
2022-08-16T20:34:30.496Z,66.30
2022-08-16T20:37:18.779Z,66.60
2022-08-16T20:40:33.419Z,66.90
2022-08-16T20:43:19.008Z,66.80
2022-08-16T20:46:06.662Z,67.00
2022-08-16T20:48:54.604Z,67.20
2022-08-16T20:51:49.660Z,67.40
2022-08-16T20:54:57.692Z,67.60
2022-08-16T20:58:04.814Z,67.70
2022-08-16T21:01:13.129Z,68.10
2022-08-16T21:04:01.154Z,68.80
2022-08-16T21:06:54.432Z,69.50
2022-08-16T21:09:43.061Z,68.90
2022-08-16T21:12:34.768Z,68.90
2022-08-16T21:15:26.481Z,68.30
2022-08-16T21:18:16.228Z,68.40
2022-08-16T21:21:23.154Z,69.30
2022-08-16T21:24:22.734Z,68.60
2022-08-16T21:27:30.271Z,69.40
2022-08-16T21:30:37.392Z,68.60
2022-08-16T21:33:26.543Z,68.70
2022-08-16T21:36:14.698Z,69.10
2022-08-16T21:39:02.514Z,68.40
2022-08-16T21:41:50.394Z,68.90
2022-08-16T21:44:38.693Z,68.30
2022-08-16T21:47:27.179Z,68.60
2022-08-16T21:50:16.730Z,68.40
2022-08-16T21:53:09.488Z,69.30
2022-08-16T21:56:17.338Z,68.40
2022-08-16T21:59:10.823Z,68.90
2022-08-16T22:02:17.848Z,68.10
2022-08-16T22:05:26.075Z,68.00
2022-08-16T22:08:30.751Z,68.80
2022-08-16T22:11:30.848Z,68.10
2022-08-16T22:14:27.975Z,68.00
2022-08-16T22:17:34.514Z,68.60
2022-08-16T22:20:46.190Z,67.80
2022-08-16T22:23:36.214Z,68.50
2022-08-16T22:26:34.915Z,67.60
2022-08-16T22:29:33.681Z,67.70
2022-08-16T22:32:40.282Z,68.40
2022-08-16T22:35:28.270Z,67.70
2022-08-16T22:38:56.672Z,67.70
2022-08-16T22:41:26.122Z,67.70
2022-08-16T22:44:13.862Z,67.70
2022-08-16T22:47:02.166Z,67.80
2022-08-16T22:49:49.777Z,67.80
2022-08-16T22:52:55.975Z,67.80
2022-08-16T22:55:46.413Z,67.90
2022-08-16T22:58:36.390Z,67.70
2022-08-16T23:01:25.686Z,67.70
2022-08-16T23:04:13.506Z,67.60
2022-08-16T23:07:01.615Z,67.60
2022-08-16T23:10:09.267Z,67.50
2022-08-16T23:13:17.309Z,67.40
2022-08-16T23:16:32.251Z,67.30
2022-08-16T23:19:21.621Z,67.30
2022-08-16T23:22:09.570Z,67.20
2022-08-16T23:24:57.769Z,66.40
2022-08-16T23:27:45.838Z,67.20
2022-08-16T23:30:36.708Z,67.30
2022-08-16T23:33:28.927Z,67.40
2022-08-16T23:36:16.600Z,68.10
2022-08-16T23:39:04.627Z,67.40
2022-08-16T23:41:52.291Z,67.50
2022-08-16T23:44:42.348Z,67.40
2022-08-16T23:47:48.110Z,68.10
2022-08-16T23:50:40.892Z,68.00
2022-08-16T23:53:29.544Z,68.00
2022-08-16T23:56:18.390Z,67.10
2022-08-16T23:59:06.299Z,67.20
